Time;durP1;ratioP1;P1;durP2;ratioP2;P2;SDS_P1;SDS_P2;PMS_P1;PMS_P2;Temp;Humidity;BMP_temperature;BMP_pressure;BME280_temperature;BME280_humidity;BME280_pressure;Samples;Min_cycle;Max_cycle;Signal;HPM_P1;HPM_P2
2024/03/05 00:01:17;;;;;;;14.75;4.95;;;8.20;99.90;;;;;;5089249;28;20039;-78
2024/03/05 00:03:43;;;;;;;8.73;4.30;;;8.20;99.90;;;;;;5086301;28;20050;-77
2024/03/05 00:06:10;;;;;;;9.52;4.35;;;8.20;99.90;;;;;;5068187;28;20061;-77
2024/03/05 00:08:36;;;;;;;8.60;3.60;;;8.20;99.90;;;;;;5101922;28;20286;-77
2024/03/05 00:11:03;;;;;;;10.20;3.70;;;8.20;99.90;;;;;;5085415;28;20036;-78
2024/03/05 00:13:29;;;;;;;9.48;3.72;;;8.20;99.90;;;;;;5085857;28;20459;-77
2024/03/05 00:15:57;;;;;;;14.95;5.13;;;8.20;99.90;;;;;;5082447;28;20028;-78
2024/03/05 00:18:22;;;;;;;15.68;5.20;;;8.20;99.90;;;;;;5085049;28;20166;-77
2024/03/05 00:20:48;;;;;;;18.98;5.28;;;8.20;99.90;;;;;;5070069;28;20123;-78
2024/03/05 00:23:14;;;;;;;11.60;3.50;;;8.20;99.90;;;;;;5071020;28;20125;-78
2024/03/05 00:25:40;;;;;;;12.48;4.45;;;8.20;99.90;;;;;;5084394;28;20458;-78
2024/03/05 00:28:06;;;;;;;16.13;4.15;;;8.20;99.90;;;;;;5087786;28;20039;-78
2024/03/05 00:30:32;;;;;;;10.20;3.78;;;8.20;99.90;;;;;;5082491;28;20146;-78
2024/03/05 00:32:58;;;;;;;12.65;4.68;;;8.20;99.90;;;;;;5068803;28;20384;-79
2024/03/05 00:35:24;;;;;;;8.07;3.03;;;8.20;99.90;;;;;;5087776;28;20068;-78
2024/03/05 00:37:50;;;;;;;14.25;5.72;;;8.20;99.90;;;;;;5087207;28;20419;-78
2024/03/05 00:40:16;;;;;;;11.55;4.75;;;8.20;99.90;;;;;;5067702;28;20059;-79
2024/03/05 00:42:42;;;;;;;15.95;4.78;;;8.20;99.90;;;;;;5086907;28;20483;-78
2024/03/05 00:45:10;;;;;;;7.35;3.53;;;8.20;99.90;;;;;;5068864;28;20039;-78
2024/03/05 00:47:36;;;;;;;11.55;4.97;;;8.20;99.90;;;;;;5068573;28;20044;-78
2024/03/05 00:50:03;;;;;;;11.00;4.28;;;8.20;99.90;;;;;;5067718;28;20118;-77
2024/03/05 00:52:30;;;;;;;14.63;4.32;;;8.20;99.90;;;;;;5088379;28;20050;-77
2024/03/05 00:54:57;;;;;;;8.57;3.20;;;8.20;99.90;;;;;;5068679;28;20056;-78
2024/03/05 00:57:24;;;;;;;10.38;4.43;;;8.20;99.90;;;;;;5102741;28;20044;-77
2024/03/05 00:59:50;;;;;;;7.25;3.70;;;8.20;99.90;;;;;;5081680;28;20032;-78
2024/03/05 01:02:16;;;;;;;8.85;3.95;;;8.20;99.90;;;;;;5097791;28;20047;-78
2024/03/05 01:04:41;;;;;;;12.38;3.97;;;8.20;99.90;;;;;;5088806;28;20043;-79
2024/03/05 01:07:07;;;;;;;7.63;3.72;;;8.20;99.90;;;;;;5088168;28;20036;-79
2024/03/05 01:09:33;;;;;;;9.10;3.30;;;8.20;99.90;;;;;;5103972;28;20046;-78
2024/03/05 01:11:59;;;;;;;14.55;5.18;;;8.20;99.90;;;;;;5065280;28;20455;-78
2024/03/05 01:14:24;;;;;;;11.38;4.70;;;8.20;99.90;;;;;;5066962;28;20091;-77
2024/03/05 01:16:50;;;;;;;11.38;4.70;;;8.20;99.90;;;;;;5087692;28;20039;-78
2024/03/05 01:19:16;;;;;;;12.63;4.68;;;8.10;99.90;;;;;;5066249;28;20036;-78
2024/03/05 01:21:41;;;;;;;14.60;3.95;;;8.10;99.90;;;;;;5070771;28;20094;-79
2024/03/05 01:24:10;;;;;;;17.77;5.63;;;8.10;99.90;;;;;;5082538;28;20115;-77
2024/03/05 01:26:42;;;;;;;14.00;5.13;;;8.20;99.90;;;;;;5086113;28;20024;-78
2024/03/05 01:29:12;;;;;;;11.48;3.88;;;8.10;99.90;;;;;;5085228;28;20036;-78
2024/03/05 01:31:38;;;;;;;9.00;3.65;;;8.20;99.90;;;;;;5070631;28;20467;-78
2024/03/05 01:34:05;;;;;;;11.10;4.20;;;8.10;99.90;;;;;;5092341;28;20067;-77
2024/03/05 01:36:31;;;;;;;16.50;3.92;;;8.10;99.90;;;;;;5091008;28;20032;-77
2024/03/05 01:38:57;;;;;;;11.93;5.03;;;8.20;99.90;;;;;;5084379;28;20036;-77
2024/03/05 01:41:23;;;;;;;17.70;5.95;;;8.10;99.90;;;;;;5090769;28;20058;-77
2024/03/05 01:43:49;;;;;;;15.70;6.10;;;8.20;99.90;;;;;;5070777;28;20028;-77
2024/03/05 01:46:17;;;;;;;14.68;4.95;;;8.20;99.90;;;;;;5072938;28;20092;-77
2024/03/05 01:48:44;;;;;;;16.80;5.03;;;8.20;99.90;;;;;;5073558;28;20098;-78
2024/03/05 01:51:16;;;;;;;10.80;4.30;;;8.10;99.90;;;;;;5091820;28;20096;-78
2024/03/05 01:53:43;;;;;;;9.02;4.68;;;8.20;99.90;;;;;;5086313;28;20121;-78
2024/03/05 01:56:11;;;;;;;12.60;4.85;;;8.20;99.90;;;;;;5105309;28;20058;-78
2024/03/05 01:58:39;;;;;;;10.20;4.78;;;8.20;99.90;;;;;;5102145;28;20051;-79
2024/03/05 02:01:06;;;;;;;15.30;4.65;;;8.20;99.90;;;;;;5088756;28;20040;-78
2024/03/05 02:03:37;;;;;;;10.23;4.57;;;8.20;99.90;;;;;;5083348;28;20040;-79
2024/03/05 02:06:06;;;;;;;14.13;5.53;;;8.20;99.90;;;;;;5091010;28;20039;-79
2024/03/05 02:08:31;;;;;;;9.02;3.97;;;8.20;99.90;;;;;;5071467;28;20138;-78
2024/03/05 02:10:57;;;;;;;14.13;4.10;;;8.20;99.90;;;;;;5067909;28;20571;-79
2024/03/05 02:13:24;;;;;;;10.10;3.90;;;8.20;99.90;;;;;;5088828;28;20040;-78
2024/03/05 02:15:50;;;;;;;14.68;4.90;;;8.20;99.90;;;;;;5090223;28;20058;-78
2024/03/05 02:18:16;;;;;;;17.77;5.63;;;8.20;99.90;;;;;;5089381;28;20043;-78
2024/03/05 02:20:42;;;;;;;18.52;5.75;;;8.20;99.90;;;;;;5082634;28;20489;-78
2024/03/05 02:23:07;;;;;;;13.07;4.75;;;8.20;99.90;;;;;;5068879;28;20044;-78
2024/03/05 02:25:34;;;;;;;13.32;5.15;;;8.20;99.90;;;;;;5089775;28;20063;-78
2024/03/05 02:28:01;;;;;;;11.93;4.25;;;8.20;99.90;;;;;;5095010;28;20119;-78
2024/03/05 02:30:29;;;;;;;14.65;4.97;;;8.20;99.90;;;;;;5074941;28;20533;-78
2024/03/05 02:32:56;;;;;;;10.43;4.28;;;8.20;99.90;;;;;;5091275;28;20043;-78
2024/03/05 02:35:23;;;;;;;9.20;3.40;;;8.20;99.90;;;;;;5073708;28;20143;-79
2024/03/05 02:37:49;;;;;;;9.80;4.22;;;8.20;99.90;;;;;;5089333;28;20075;-79
2024/03/05 02:40:15;;;;;;;8.10;3.00;;;8.20;99.90;;;;;;5061508;28;20094;-78
2024/03/05 02:42:44;;;;;;;9.63;4.30;;;8.20;99.90;;;;;;5089127;28;20033;-78
2024/03/05 02:45:11;;;;;;;15.73;4.93;;;8.20;99.90;;;;;;5088014;28;20033;-78
2024/03/05 02:47:41;;;;;;;7.93;2.97;;;8.20;99.90;;;;;;5090141;28;20131;-77
2024/03/05 02:50:08;;;;;;;9.77;4.60;;;8.30;99.90;;;;;;5087340;28;20526;-77
2024/03/05 02:52:35;;;;;;;12.80;4.68;;;8.20;99.90;;;;;;5089114;28;20058;-77
2024/03/05 02:55:01;;;;;;;14.10;4.80;;;8.30;99.90;;;;;;5063341;28;20059;-78
2024/03/05 02:57:28;;;;;;;10.38;4.88;;;8.20;99.90;;;;;;5089594;28;20044;-78
2024/03/05 02:59:54;;;;;;;10.98;3.65;;;8.20;99.90;;;;;;5088833;28;20040;-78
2024/03/05 03:02:21;;;;;;;11.38;4.47;;;8.20;99.90;;;;;;5071658;28;20484;-78
2024/03/05 03:04:47;;;;;;;12.65;4.45;;;8.30;99.90;;;;;;5084653;28;20109;-78
2024/03/05 03:07:13;;;;;;;11.13;3.97;;;8.20;99.90;;;;;;5088325;28;20032;-78
2024/03/05 03:09:39;;;;;;;8.77;4.15;;;8.20;99.90;;;;;;5088482;28;20051;-78
2024/03/05 03:12:05;;;;;;;12.38;4.55;;;8.20;99.90;;;;;;5086463;28;20048;-79
2024/03/05 03:14:31;;;;;;;9.50;3.72;;;8.20;99.90;;;;;;5097035;28;20040;-79
2024/03/05 03:16:57;;;;;;;12.30;3.88;;;8.20;99.90;;;;;;5060383;28;20044;-79
2024/03/05 03:19:23;;;;;;;11.10;3.83;;;8.20;99.90;;;;;;5086195;28;20040;-78
2024/03/05 03:21:49;;;;;;;9.18;4.03;;;8.20;99.90;;;;;;5069422;28;20033;-78
2024/03/05 03:24:17;;;;;;;9.05;3.58;;;8.20;99.90;;;;;;5089760;28;20111;-79
2024/03/05 03:26:44;;;;;;;10.95;5.22;;;8.20;99.90;;;;;;5081799;28;20036;-78
2024/03/05 03:29:13;;;;;;;9.48;3.75;;;8.20;99.90;;;;;;5090735;28;20436;-78
2024/03/05 03:31:46;;;;;;;13.30;4.55;;;8.20;99.90;;;;;;5085924;28;20462;-78
2024/03/05 03:34:12;;;;;;;10.68;5.22;;;8.20;99.90;;;;;;5090731;28;20089;-78
2024/03/05 03:36:39;;;;;;;9.75;4.63;;;8.20;99.90;;;;;;5086392;28;20119;-78
2024/03/05 03:39:05;;;;;;;11.35;4.88;;;8.20;99.90;;;;;;5085821;28;20040;-78
2024/03/05 03:41:31;;;;;;;13.77;5.18;;;8.20;99.90;;;;;;5087075;28;20115;-78
2024/03/05 03:43:58;;;;;;;10.57;6.10;;;8.20;99.90;;;;;;5072840;28;20170;-78
2024/03/05 03:46:23;;;;;;;14.85;4.80;;;8.20;99.90;;;;;;5072142;28;20039;-78
2024/03/05 03:48:49;;;;;;;11.75;5.15;;;8.30;99.90;;;;;;5073916;28;20032;-79
2024/03/05 03:51:15;;;;;;;12.52;4.47;;;8.20;99.90;;;;;;5085580;28;20046;-77
2024/03/05 03:53:43;;;;;;;13.15;5.78;;;8.30;99.90;;;;;;5072693;28;20060;-79
2024/03/05 03:56:09;;;;;;;13.07;2.88;;;8.30;99.90;;;;;;5086535;28;20047;-78
2024/03/05 03:58:36;;;;;;;9.38;4.32;;;8.30;99.90;;;;;;5089246;28;20049;-78
2024/03/05 04:01:02;;;;;;;18.23;5.80;;;8.30;99.90;;;;;;5089010;28;20401;-79
2024/03/05 04:03:31;;;;;;;12.38;4.32;;;8.20;99.90;;;;;;5089377;28;20036;-78
2024/03/05 04:05:56;;;;;;;10.38;5.32;;;8.30;99.90;;;;;;5089964;28;20527;-78
2024/03/05 04:08:22;;;;;;;14.70;5.40;;;8.30;99.90;;;;;;5099378;28;20047;-78
2024/03/05 04:10:48;;;;;;;10.30;3.90;;;8.30;99.90;;;;;;5089073;28;20040;-77
2024/03/05 04:13:14;;;;;;;8.93;4.43;;;8.30;99.90;;;;;;5084442;28;20044;-77
2024/03/05 04:15:40;;;;;;;13.20;4.80;;;8.40;99.90;;;;;;5088764;28;20123;-77
2024/03/05 04:18:05;;;;;;;14.25;4.60;;;8.30;99.90;;;;;;5069656;28;20048;-78
2024/03/05 04:20:31;;;;;;;14.00;5.75;;;8.30;99.90;;;;;;5069536;28;20075;-78
2024/03/05 04:22:57;;;;;;;13.27;5.00;;;8.30;99.90;;;;;;5085003;28;20505;-78
2024/03/05 04:25:27;;;;;;;14.25;4.82;;;8.30;99.90;;;;;;5102474;28;20029;-78
2024/03/05 04:27:52;;;;;;;16.35;5.38;;;8.30;99.90;;;;;;5088604;28;20073;-77
2024/03/05 04:30:19;;;;;;;13.13;5.78;;;8.30;99.90;;;;;;5087129;28;20036;-78
2024/03/05 04:32:49;;;;;;;13.45;5.07;;;8.30;99.90;;;;;;5070217;28;20036;-77
2024/03/05 04:35:16;;;;;;;10.68;4.30;;;8.20;99.90;;;;;;5069346;28;20044;-78
2024/03/05 04:37:42;;;;;;;14.18;5.15;;;8.30;99.90;;;;;;5081457;28;20039;-78
2024/03/05 04:40:12;;;;;;;12.07;5.18;;;8.20;99.90;;;;;;5069504;28;20039;-78
2024/03/05 04:42:41;;;;;;;11.48;5.53;;;8.30;99.90;;;;;;5087117;28;20144;-77
2024/03/05 04:45:07;;;;;;;14.32;4.97;;;8.30;99.90;;;;;;5086977;28;20471;-78
2024/03/05 04:47:33;;;;;;;13.98;5.28;;;8.20;99.90;;;;;;5085365;28;20050;-77
2024/03/05 04:50:01;;;;;;;11.98;5.00;;;8.30;99.90;;;;;;5100732;28;20036;-78
2024/03/05 04:52:27;;;;;;;13.07;4.70;;;8.30;99.90;;;;;;5084232;28;20252;-78
2024/03/05 04:54:54;;;;;;;13.40;4.53;;;8.20;99.90;;;;;;5071056;28;20058;-77
2024/03/05 04:57:20;;;;;;;16.10;5.10;;;8.20;99.90;;;;;;5088338;28;20495;-78
2024/03/05 04:59:46;;;;;;;14.90;6.38;;;8.20;99.90;;;;;;5081594;28;20052;-77
2024/03/05 05:02:12;;;;;;;12.30;4.70;;;8.20;99.90;;;;;;5072142;28;20041;-78
2024/03/05 05:04:37;;;;;;;20.25;4.78;;;8.30;99.90;;;;;;5065278;28;20044;-78
2024/03/05 05:07:07;;;;;;;10.15;4.43;;;8.30;99.90;;;;;;5085045;28;20077;-78
2024/03/05 05:09:36;;;;;;;12.40;5.65;;;8.30;99.90;;;;;;5068500;28;20555;-78
2024/03/05 05:12:02;;;;;;;9.60;4.55;;;8.30;99.90;;;;;;5082033;28;20444;-78
2024/03/05 05:14:29;;;;;;;12.45;5.28;;;8.20;99.90;;;;;;5080336;28;20075;-78
2024/03/05 05:16:56;;;;;;;13.05;5.90;;;8.30;99.90;;;;;;5086140;28;20040;-78
2024/03/05 05:19:22;;;;;;;8.00;3.85;;;8.20;99.90;;;;;;5093070;28;20096;-78
2024/03/05 05:21:48;;;;;;;12.45;4.88;;;8.20;99.90;;;;;;5085466;28;20063;-78
2024/03/05 05:24:13;;;;;;;15.13;4.30;;;8.10;99.90;;;;;;5085677;28;20127;-78
2024/03/05 05:26:42;;;;;;;9.40;4.25;;;8.10;99.90;;;;;;5084814;28;20089;-77
2024/03/05 05:29:09;;;;;;;12.40;4.60;;;8.10;99.90;;;;;;5087070;28;20039;-77
2024/03/05 05:31:36;;;;;;;11.15;4.13;;;8.10;99.90;;;;;;5085091;28;20051;-77
2024/03/05 05:34:02;;;;;;;12.10;4.78;;;8.00;99.90;;;;;;5086826;28;20064;-78
2024/03/05 05:36:29;;;;;;;9.43;4.57;;;7.90;99.90;;;;;;5066936;28;20028;-77
2024/03/05 05:38:55;;;;;;;8.85;3.78;;;7.90;99.90;;;;;;5068635;28;20044;-77
2024/03/05 05:41:21;;;;;;;10.98;4.00;;;7.80;99.90;;;;;;5083532;28;20050;-77
2024/03/05 05:43:48;;;;;;;8.85;4.43;;;7.80;99.90;;;;;;5085641;28;20032;-77
2024/03/05 05:46:15;;;;;;;15.40;5.38;;;7.60;99.90;;;;;;5066958;28;20098;-78
2024/03/05 05:48:48;;;;;;;8.90;4.30;;;7.60;99.90;;;;;;5096871;28;20082;-77
2024/03/05 05:51:15;;;;;;;6.93;3.72;;;7.50;99.90;;;;;;5083264;28;20126;-77
2024/03/05 05:53:41;;;;;;;7.15;3.97;;;7.50;99.90;;;;;;5102496;28;20091;-78
2024/03/05 05:56:07;;;;;;;8.45;3.25;;;7.40;99.90;;;;;;5081806;28;20440;-78
2024/03/05 05:58:33;;;;;;;9.07;4.53;;;7.30;99.90;;;;;;5066117;28;20075;-78
2024/03/05 06:01:04;;;;;;;11.27;4.25;;;7.30;99.90;;;;;;5083583;28;20044;-75
2024/03/05 06:03:30;;;;;;;10.82;4.55;;;7.20;99.90;;;;;;5082426;28;20036;-75
2024/03/05 06:05:56;;;;;;;9.20;4.07;;;7.30;99.90;;;;;;5087056;28;20064;-76
2024/03/05 06:08:22;;;;;;;12.90;4.68;;;7.20;99.90;;;;;;5079602;28;20063;-76
2024/03/05 06:10:48;;;;;;;10.90;3.45;;;7.10;99.90;;;;;;5098468;28;20054;-75
2024/03/05 06:13:15;;;;;;;13.32;4.75;;;7.10;99.90;;;;;;5071215;28;20036;-75
2024/03/05 06:15:41;;;;;;;8.60;3.53;;;7.10;99.90;;;;;;5087541;28;20032;-76
2024/03/05 06:18:07;;;;;;;7.85;4.25;;;7.00;99.90;;;;;;5085357;28;20086;-76
2024/03/05 06:20:33;;;;;;;12.02;3.45;;;7.00;99.90;;;;;;5087160;28;20380;-76
2024/03/05 06:23:00;;;;;;;11.75;4.95;;;7.00;99.90;;;;;;5072647;28;20090;-76
2024/03/05 06:25:29;;;;;;;10.90;4.80;;;7.00;99.90;;;;;;5089575;28;20044;-77
2024/03/05 06:27:55;;;;;;;10.05;4.22;;;7.00;99.90;;;;;;5105365;28;20437;-77
2024/03/05 06:30:21;;;;;;;13.25;5.53;;;7.10;99.90;;;;;;5091717;28;20044;-77
2024/03/05 06:32:48;;;;;;;11.18;4.60;;;7.10;99.90;;;;;;5067923;28;20047;-76
2024/03/05 06:35:18;;;;;;;9.50;4.45;;;7.10;99.90;;;;;;5068567;28;20088;-77
2024/03/05 06:37:48;;;;;;;33.42;3.45;;;7.10;99.90;;;;;;5088550;28;20071;-77
2024/03/05 06:40:19;;;;;;;28.23;3.50;;;7.20;99.90;;;;;;5073352;28;20626;-77
2024/03/05 06:42:52;;;;;;;7.03;3.63;;;7.20;99.90;;;;;;5073360;28;20040;-77
2024/03/05 06:45:27;;;;;;;8.25;3.88;;;7.20;99.90;;;;;;5089677;28;20494;-77
2024/03/05 06:47:56;;;;;;;5.40;2.88;;;7.20;99.90;;;;;;5087502;28;20074;-82
2024/03/05 06:50:36;;;;;;;7.72;4.03;;;7.30;99.90;;;;;;5072095;28;20040;-87
2024/03/05 06:58:35;;;;;;;6.32;3.55;;;7.30;99.90;;;;;;5090083;28;20109;-86
2024/03/05 07:01:08;;;;;;;6.65;3.72;;;7.40;99.90;;;;;;5074537;28;20495;-87
2024/03/05 07:03:38;;;;;;;6.90;3.78;;;7.30;99.90;;;;;;5071175;28;20093;-88
2024/03/05 07:06:07;;;;;;;9.70;3.08;;;7.40;99.90;;;;;;5064570;28;20085;-89
2024/03/05 07:08:39;;;;;;;6.68;3.25;;;7.40;99.90;;;;;;5105423;28;20506;-88
2024/03/05 07:11:09;;;;;;;20.77;4.32;;;7.50;99.90;;;;;;5087259;28;20036;-88
2024/03/05 07:13:40;;;;;;;14.38;4.15;;;7.50;99.90;;;;;;5071428;28;20035;-88
2024/03/05 07:16:07;;;;;;;8.50;3.78;;;7.50;99.90;;;;;;5096562;28;20402;-89
2024/03/05 07:18:36;;;;;;;7.75;3.90;;;7.50;99.90;;;;;;5082346;28;20045;-89
2024/03/05 07:21:04;;;;;;;13.65;3.78;;;7.50;99.90;;;;;;5071869;28;20176;-86
2024/03/05 07:23:30;;;;;;;8.88;3.63;;;7.50;99.90;;;;;;5087934;28;20543;-84
2024/03/05 07:25:57;;;;;;;9.75;4.72;;;7.60;99.90;;;;;;5069177;28;20123;-85
2024/03/05 07:28:23;;;;;;;10.73;4.10;;;7.60;99.90;;;;;;5072413;28;20035;-87
2024/03/05 07:30:48;;;;;;;12.32;5.35;;;7.70;99.90;;;;;;5073406;28;20063;-87
2024/03/05 07:33:14;;;;;;;10.65;3.95;;;7.70;99.90;;;;;;5084021;28;20067;-88
2024/03/05 07:35:40;;;;;;;10.63;5.28;;;7.80;99.90;;;;;;5091423;28;20067;-88
2024/03/05 07:38:09;;;;;;;9.70;4.20;;;7.90;99.90;;;;;;5091626;28;20040;-88
2024/03/05 07:40:34;;;;;;;16.17;5.63;;;8.00;99.90;;;;;;5088585;28;20134;-88
2024/03/05 07:43:08;;;;;;;17.65;5.75;;;8.00;99.90;;;;;;5083958;28;20063;-86
2024/03/05 07:45:37;;;;;;;12.13;5.27;;;8.10;99.90;;;;;;5098390;28;20111;-87
2024/03/05 07:48:03;;;;;;;19.90;7.28;;;8.20;99.90;;;;;;5095905;28;20298;-88
2024/03/05 07:50:29;;;;;;;17.52;6.43;;;8.20;99.90;;;;;;5068949;28;20044;-88
2024/03/05 07:52:58;;;;;;;15.57;5.28;;;8.20;99.90;;;;;;5070743;28;20044;-86
2024/03/05 07:55:27;;;;;;;18.20;6.40;;;8.30;99.90;;;;;;5084097;28;20116;-88
2024/03/05 07:57:54;;;;;;;15.77;5.95;;;8.30;99.90;;;;;;5082782;28;20035;-82
2024/03/05 08:00:21;;;;;;;18.02;5.97;;;8.40;99.90;;;;;;5081922;28;20411;-84
2024/03/05 08:02:48;;;;;;;14.38;6.30;;;8.40;99.90;;;;;;5083204;28;20043;-83
2024/03/05 08:05:21;;;;;;;16.73;6.45;;;8.40;99.90;;;;;;5095867;28;20033;-87
2024/03/05 08:07:49;;;;;;;17.98;7.20;;;8.50;99.90;;;;;;5068394;28;20122;-88
2024/03/05 08:10:18;;;;;;;13.50;6.38;;;8.50;99.90;;;;;;5082877;28;20120;-86
2024/03/05 08:12:46;;;;;;;17.98;6.75;;;8.50;99.90;;;;;;5086387;28;20040;-85
2024/03/05 08:15:15;;;;;;;14.80;5.40;;;8.50;99.90;;;;;;5099114;28;20075;-86
2024/03/05 08:17:45;;;;;;;16.05;5.78;;;8.50;99.90;;;;;;5090698;28;20051;-86
2024/03/05 08:20:16;;;;;;;15.07;8.27;;;8.50;99.90;;;;;;5085458;28;20040;-86
2024/03/05 08:22:46;;;;;;;18.65;7.18;;;8.50;99.90;;;;;;5068570;28;20040;-87
2024/03/05 08:25:16;;;;;;;18.77;5.75;;;8.40;99.90;;;;;;5084992;28;20044;-88
2024/03/05 08:27:45;;;;;;;19.58;7.60;;;8.50;99.90;;;;;;5089900;28;20048;-87
2024/03/05 08:30:16;;;;;;;15.43;7.13;;;8.50;99.90;;;;;;5071740;28;20046;-87
2024/03/05 08:32:43;;;;;;;15.05;6.40;;;8.50;99.90;;;;;;5089590;28;20043;-87
2024/03/05 08:35:11;;;;;;;18.17;7.95;;;8.50;99.90;;;;;;5103661;28;20114;-87
2024/03/05 08:37:41;;;;;;;19.75;7.38;;;8.60;99.90;;;;;;5071789;28;20044;-87
2024/03/05 08:40:14;;;;;;;20.05;7.10;;;8.60;99.90;;;;;;5084977;28;20500;-87
2024/03/05 08:42:48;;;;;;;20.85;6.72;;;8.60;99.90;;;;;;5089753;28;20408;-85
2024/03/05 08:45:20;;;;;;;19.60;7.23;;;8.60;99.90;;;;;;5089733;28;20036;-86
2024/03/05 08:47:51;;;;;;;27.73;9.10;;;8.70;99.90;;;;;;5085603;28;20408;-86
2024/03/05 08:50:17;;;;;;;13.18;6.07;;;8.70;99.90;;;;;;5090081;28;20536;-85
2024/03/05 08:52:43;;;;;;;15.63;7.22;;;8.70;99.90;;;;;;5069912;28;20502;-85
2024/03/05 08:55:10;;;;;;;20.92;6.78;;;8.70;99.90;;;;;;5088435;28;20048;-87
2024/03/05 08:57:37;;;;;;;15.48;7.45;;;8.70;99.90;;;;;;5088231;28;20054;-87
2024/03/05 09:00:04;;;;;;;22.40;7.85;;;8.80;99.90;;;;;;5089576;28;20161;-86
2024/03/05 09:02:30;;;;;;;23.88;8.38;;;8.80;99.90;;;;;;5093781;28;20260;-86
2024/03/05 09:04:56;;;;;;;23.33;7.88;;;8.90;99.90;;;;;;5073933;28;20173;-87
2024/03/05 09:07:22;;;;;;;17.27;8.20;;;8.90;99.90;;;;;;5088104;28;20063;-87
2024/03/05 09:09:49;;;;;;;22.20;8.27;;;8.90;99.90;;;;;;5071203;28;20036;-85
2024/03/05 09:12:15;;;;;;;18.88;8.10;;;8.90;99.90;;;;;;5084738;28;20090;-88
2024/03/05 09:14:41;;;;;;;22.60;7.72;;;9.00;99.90;;;;;;5070157;28;20067;-87
2024/03/05 09:17:08;;;;;;;17.98;8.02;;;9.00;99.90;;;;;;5083039;28;20129;-87
2024/03/05 09:19:34;;;;;;;17.02;8.50;;;9.00;99.90;;;;;;5088177;28;20048;-87
2024/03/05 09:22:04;;;;;;;20.23;8.23;;;9.10;99.90;;;;;;5070228;28;20039;-87
2024/03/05 09:24:31;;;;;;;20.70;8.13;;;9.10;99.90;;;;;;5087380;28;20047;-87
2024/03/05 09:27:01;;;;;;;10.48;5.32;;;9.10;99.90;;;;;;5085569;28;20560;-85
2024/03/05 09:29:28;;;;;;;15.95;7.38;;;9.10;99.90;;;;;;5102921;28;20203;-88
2024/03/05 09:31:54;;;;;;;11.43;5.47;;;9.20;99.90;;;;;;5090236;28;20036;-86
2024/03/05 09:34:20;;;;;;;21.92;7.63;;;9.20;99.90;;;;;;5070999;28;20036;-86
2024/03/05 09:36:45;;;;;;;22.25;8.13;;;9.20;99.90;;;;;;5088069;28;20045;-85
2024/03/05 09:39:11;;;;;;;16.00;7.78;;;9.20;99.90;;;;;;5098655;28;20531;-83
2024/03/05 09:41:44;;;;;;;13.25;7.07;;;9.20;99.90;;;;;;5086135;28;20090;-87
2024/03/05 09:44:11;;;;;;;19.70;8.00;;;9.20;99.90;;;;;;5088498;28;20043;-87
2024/03/05 09:46:48;;;;;;;18.45;7.80;;;9.30;99.90;;;;;;5089181;28;20048;-86
2024/03/05 09:49:18;;;;;;;21.65;8.82;;;9.30;99.90;;;;;;5068607;28;20040;-87
2024/03/05 09:51:46;;;;;;;18.60;7.75;;;9.30;99.90;;;;;;5089980;28;20391;-86
2024/03/05 09:54:12;;;;;;;22.98;8.15;;;9.40;99.90;;;;;;5073484;28;20083;-86
2024/03/05 09:56:46;;;;;;;18.35;8.18;;;9.40;99.90;;;;;;5076598;28;20040;-87
2024/03/05 09:59:16;;;;;;;23.40;7.78;;;9.40;99.90;;;;;;5085914;28;20044;-83
2024/03/05 10:01:45;;;;;;;15.32;8.05;;;9.40;99.90;;;;;;5092874;28;20487;-88
2024/03/05 10:04:18;;;;;;;26.60;8.55;;;9.50;99.90;;;;;;5071317;28;20032;-85
2024/03/05 10:06:47;;;;;;;18.08;7.22;;;9.50;99.90;;;;;;5091194;28;20040;-86
2024/03/05 10:09:17;;;;;;;17.92;7.60;;;9.50;99.90;;;;;;5085722;28;20040;-85
2024/03/05 10:11:44;;;;;;;23.20;9.10;;;9.50;99.90;;;;;;5092467;28;20051;-87
2024/03/05 10:14:10;;;;;;;22.58;9.10;;;9.50;99.90;;;;;;5071003;28;20391;-86
2024/03/05 10:16:37;;;;;;;26.85;8.40;;;9.50;99.90;;;;;;5088990;28;20036;-84
2024/03/05 10:19:16;;;;;;;24.02;8.50;;;9.50;99.90;;;;;;5074401;28;20051;-84
2024/03/05 10:21:44;;;;;;;16.17;8.52;;;9.40;99.90;;;;;;5076060;28;20051;-86
2024/03/05 10:24:11;;;;;;;20.40;8.68;;;9.40;99.90;;;;;;5106463;28;20516;-86
2024/03/05 10:26:37;;;;;;;23.20;9.90;;;9.50;99.90;;;;;;5089568;28;20495;-87
2024/03/05 10:29:08;;;;;;;26.55;10.10;;;9.40;99.90;;;;;;5072988;28;20119;-86
2024/03/05 10:31:38;;;;;;;31.60;12.68;;;9.40;99.90;;;;;;5107729;28;20483;-87
2024/03/05 10:34:05;;;;;;;22.10;8.73;;;9.30;99.90;;;;;;5088459;28;20036;-86
2024/03/05 10:36:33;;;;;;;22.83;9.60;;;9.30;99.90;;;;;;5089953;28;20116;-86
2024/03/05 10:39:00;;;;;;;23.63;8.93;;;9.30;99.90;;;;;;5076417;28;20097;-86
2024/03/05 10:41:31;;;;;;;24.17;9.88;;;9.30;99.90;;;;;;5088622;28;20190;-86
2024/03/05 10:44:00;;;;;;;21.58;9.10;;;9.40;99.90;;;;;;5092390;28;20422;-85
2024/03/05 10:46:29;;;;;;;17.55;8.50;;;9.30;99.90;;;;;;5108393;28;20115;-86
2024/03/05 10:48:59;;;;;;;18.30;10.20;;;9.30;99.90;;;;;;5092104;28;20071;-86
2024/03/05 10:51:29;;;;;;;12.02;7.80;;;9.20;99.90;;;;;;5106767;28;20083;-86
2024/03/05 10:54:01;;;;;;;20.55;9.93;;;9.20;99.90;;;;;;5090251;28;20060;-85
2024/03/05 10:56:30;;;;;;;14.70;8.65;;;9.20;99.90;;;;;;5086355;28;20044;-84
2024/03/05 11:01:29;;;;;;;31.05;9.85;;;9.20;99.90;;;;;;5087229;28;20118;-85
2024/03/05 11:03:57;;;;;;;22.77;8.18;;;9.20;99.90;;;;;;5099833;28;20102;-83
2024/03/05 11:06:24;;;;;;;18.15;8.43;;;9.20;99.90;;;;;;5068930;28;20032;-85
2024/03/05 11:08:51;;;;;;;18.52;8.20;;;9.20;99.90;;;;;;5089509;28;20094;-85
2024/03/05 11:11:22;;;;;;;25.27;8.45;;;9.20;99.90;;;;;;5088065;28;20036;-86
2024/03/05 11:13:50;;;;;;;20.65;8.23;;;9.20;99.90;;;;;;5088402;28;20039;-85
2024/03/05 11:16:16;;;;;;;17.73;7.18;;;9.20;99.90;;;;;;5074476;28;20040;-86
2024/03/05 11:18:44;;;;;;;15.80;7.47;;;9.20;99.90;;;;;;5090274;28;20048;-86
2024/03/05 11:21:12;;;;;;;17.33;5.97;;;9.20;99.90;;;;;;5089414;28;20047;-86
2024/03/05 11:23:54;;;;;;;15.80;7.28;;;9.20;99.90;;;;;;5072745;28;20523;-86
2024/03/05 11:26:22;;;;;;;17.17;8.07;;;9.20;99.90;;;;;;5086011;28;20140;-86
2024/03/05 11:28:48;;;;;;;16.25;7.88;;;9.20;99.90;;;;;;5088448;28;20051;-85
2024/03/05 11:31:19;;;;;;;20.45;8.32;;;9.30;99.90;;;;;;5087422;28;20039;-82
2024/03/05 11:33:46;;;;;;;11.00;6.53;;;9.20;99.90;;;;;;5090577;28;20051;-86
2024/03/05 11:36:22;;;;;;;14.38;6.85;;;9.30;99.90;;;;;;5105924;28;20618;-85
2024/03/05 11:39:19;;;;;;;13.05;6.18;;;9.20;99.90;;;;;;5073014;28;20044;-85
2024/03/05 11:41:46;;;;;;;17.98;7.68;;;9.30;99.90;;;;;;5070448;28;20049;-86
2024/03/05 11:44:31;;;;;;;22.20;8.07;;;9.30;99.90;;;;;;5083108;28;20919;-86
2024/03/05 11:46:57;;;;;;;15.88;8.13;;;9.20;99.90;;;;;;5095549;28;20116;-85
2024/03/05 11:49:23;;;;;;;14.50;7.68;;;9.20;99.90;;;;;;5090004;28;20032;-84
2024/03/05 11:51:49;;;;;;;18.48;8.02;;;9.20;99.90;;;;;;5090274;28;20122;-85
2024/03/05 11:54:17;;;;;;;21.38;7.40;;;9.20;99.90;;;;;;5072351;28;20055;-84
2024/03/05 11:56:55;;;;;;;16.35;7.50;;;9.20;99.90;;;;;;5094103;28;21412;-86
2024/03/05 11:59:31;;;;;;;19.65;6.18;;;9.20;99.90;;;;;;5071838;28;20539;-86
2024/03/05 12:01:58;;;;;;;21.65;8.23;;;9.20;99.90;;;;;;5091245;28;20044;-86
2024/03/05 12:04:26;;;;;;;13.25;6.13;;;9.20;99.90;;;;;;5106448;28;20465;-86
2024/03/05 12:07:02;;;;;;;21.05;7.47;;;9.20;99.90;;;;;;5088461;28;20121;-84
2024/03/05 12:09:27;;;;;;;19.85;8.02;;;9.20;99.90;;;;;;5104314;28;20039;-86
2024/03/05 12:12:13;;;;;;;10.43;6.05;;;9.20;99.90;;;;;;5074499;28;20423;-86
2024/03/05 12:14:55;;;;;;;14.00;6.28;;;9.20;99.90;;;;;;5088778;28;20078;-86
2024/03/05 12:17:23;;;;;;;22.30;7.45;;;9.20;99.90;;;;;;5091721;28;20040;-86
2024/03/05 12:19:59;;;;;;;17.17;7.72;;;9.30;99.90;;;;;;5073363;28;20047;-83
2024/03/05 12:22:25;;;;;;;15.68;8.98;;;9.30;99.90;;;;;;5088608;28;20483;-86
2024/03/05 12:24:51;;;;;;;12.27;6.72;;;9.30;99.90;;;;;;5068789;28;20048;-86
2024/03/05 12:27:17;;;;;;;12.95;6.70;;;9.30;99.90;;;;;;5084228;28;20043;-86
2024/03/05 12:29:44;;;;;;;10.57;5.47;;;9.30;99.90;;;;;;5087081;28;20047;-86
2024/03/05 12:32:12;;;;;;;17.90;7.55;;;9.20;99.90;;;;;;5091429;28;20103;-86
2024/03/05 12:34:47;;;;;;;13.65;7.63;;;9.20;99.90;;;;;;5087102;28;20039;-86
2024/03/05 12:37:13;;;;;;;16.85;7.75;;;9.20;99.90;;;;;;5107614;28;20032;-86
2024/03/05 12:39:40;;;;;;;17.90;8.38;;;9.20;99.90;;;;;;5081345;28;20036;-86
2024/03/05 12:42:16;;;;;;;16.35;7.90;;;9.20;99.90;;;;;;5090057;28;20035;-86
2024/03/05 12:44:42;;;;;;;22.42;8.07;;;9.20;99.90;;;;;;5092699;28;20128;-81
2024/03/05 12:47:11;;;;;;;11.18;6.95;;;9.10;99.90;;;;;;5098211;28;20036;-85
2024/03/05 12:49:44;;;;;;;12.88;6.65;;;9.10;99.90;;;;;;5063556;28;20044;-83
2024/03/05 12:52:11;;;;;;;22.30;7.45;;;9.10;99.90;;;;;;5085151;28;20119;-86
2024/03/05 12:54:36;;;;;;;13.63;7.60;;;9.10;99.90;;;;;;5078212;28;20557;-86
2024/03/05 12:57:04;;;;;;;15.50;7.75;;;9.10;99.90;;;;;;5087344;28;20130;-85
2024/03/05 12:59:30;;;;;;;13.00;6.88;;;9.00;99.90;;;;;;5077905;28;20174;-86